ADDS METAR Data INFO
IDs: Format: Raw Decoded Include TAF

Data at: 0313 UTC 20 Jul 2018

KOLZ 200255Z AUTO 19004KT 10SM SCT050 BKN065 OVC070 21/21 A2967 RMK AO2
KOLZ 200235Z AUTO 17004KT 10SM FEW055 SCT070 BKN090 21/21 A2967 RMK AO2
KOLZ 200215Z AUTO 20006KT 10SM FEW003 SCT026 BKN075 22/21 A2967 RMK AO2
KOLZ 200155Z AUTO 26008G15KT 210V290 10SM -RA FEW004 SCT027 BKN065 21/21 A2969 RMK AO2
KOLZ 200135Z AUTO 19004KT 10SM FEW045 BKN060 21/21 A2968 RMK AO2
KOLZ 200115Z AUTO 16004KT 10SM FEW045 FEW060 21/21 A2969 RMK AO2
KOLZ 200055Z AUTO 14007KT 10SM FEW005 FEW021 21/21 A2969 RMK AO2
KOLZ 200035Z AUTO 17006KT 10SM SCT006 SCT021 SCT027 21/21 A2970 RMK AO2
KOLZ 200015Z AUTO 17006KT 10SM BKN006 BKN009 21/21 A2970 RMK AO2
KOLZ 192355Z AUTO 18007KT 10SM -RA BKN007 BKN014 BKN019 21/21 A2970 RMK AO2
KOLZ 192335Z AUTO VRB04G10KT 10SM SCT003 BKN014 OVC019 20/19 A2972 RMK AO2
KOLZ 192315Z AUTO 22013G19KT 10SM +RA BKN003 OVC010 20/20 A2974 RMK AO2
KOLZ 192255Z AUTO 18010G18KT 10SM -RA BKN009 OVC012 20/20 A2973 RMK AO2
KOLZ 192235Z AUTO 15010G20KT 10SM BKN011 OVC015 21/20 A2972 RMK AO2
KOLZ 192215Z AUTO 14014KT 10SM OVC015 21/20 A2972 RMK AO2
KOLZ 192155Z AUTO 14014KT 10SM OVC016 20/19 A2973 RMK AO2
KOLZ 192135Z AUTO 15013KT 10SM FEW009 FEW013 OVC017 21/20 A2975 RMK AO2
KOLZ 192115Z AUTO 14010G19KT 10SM SCT009 SCT013 OVC021 20/19 A2976 RMK AO2
KOLZ 192055Z AUTO 15012G18KT 10SM BKN008 OVC022 20/19 A2978 RMK AO2
KOLZ 192035Z AUTO 15012KT 10SM BKN009 OVC022 20/19 A2979 RMK AO2
KOLZ 192015Z AUTO 17011G19KT 10SM BKN010 BKN033 BKN055 21/19 A2981 RMK AO2
KOLZ 191955Z AUTO 16010G20KT 10SM FEW009 SCT015 21/20 A2980 RMK AO2
KOLZ 191935Z AUTO 15013G21KT 10SM SCT016 19/19 A2980 RMK AO2
KOLZ 191915Z AUTO 15013G22KT 10SM BKN017 OVC024 20/18 A2982 RMK AO2
KOLZ 191855Z AUTO 14012G21KT 10SM BKN020 OVC025 20/18 A2982 RMK AO2
KOLZ 191835Z AUTO 14013G24KT 10SM BKN024 OVC070 22/18 A2982 RMK AO2
KOLZ 191815Z AUTO 14016G25KT 10SM SCT020 BKN025 22/18 A2983 RMK AO2
KOLZ 191755Z AUTO 14016G22KT 10SM FEW016 22/18 A2983 RMK AO2
KOLZ 191735Z AUTO 14015G25KT 10SM BKN015 BKN045 21/18 A2985 RMK AO2
KOLZ 191715Z AUTO 15015G21KT 10SM SCT016 BKN022 BKN045 21/18 A2987 RMK AO2
KOLZ 191655Z AUTO 14015G23KT 10SM BKN016 BKN021 BKN044 20/17 A2988 RMK AO2
KOLZ 191635Z AUTO 14011G20KT 10SM BKN018 OVC023 20/17 A2989 RMK AO2
KOLZ 191615Z AUTO 14012G22KT 10SM BKN018 OVC025 18/17 A2990 RMK AO2
KOLZ 191555Z AUTO 13010KT 10SM SCT020 OVC026 18/17 A2990 RMK AO2
KOLZ 191535Z AUTO 14011KT 10SM -RA OVC021 18/17 A2991 RMK AO2
KOLZ 191515Z AUTO 14008KT 10SM -RA OVC023 18/17 A2993 RMK AO2
KOLZ 191455Z AUTO 16008G14KT 10SM BKN024 OVC028 18/17 A2994 RMK AO2
KOLZ 191435Z AUTO 16010G17KT 10SM OVC028 18/17 A2993 RMK AO2
KOLZ 191415Z AUTO 15012G18KT 10SM BKN029 OVC034 19/18 A2992 RMK AO2
KOLZ 191355Z AUTO 15013G18KT 10SM FEW012 SCT035 19/18 A2992 RMK AO2
KOLZ 191335Z AUTO 14010G16KT 10SM FEW014 18/18 A2992 RMK AO2
KOLZ 191315Z AUTO 14007KT BKN014 18/18 A2994 RMK AO2
KOLZ 191255Z AUTO 15009KT 10SM BKN014 18/18 A2994 RMK AO2
KOLZ 191235Z AUTO 16009G14KT 10SM FEW017 18/17 A2995 RMK AO2
KOLZ 191215Z AUTO 15008KT 10SM CLR 19/17 A2994 RMK AO2
KOLZ 191155Z AUTO 14008KT 10SM FEW085 19/17 A2995 RMK AO2
KOLZ 191135Z AUTO 14007KT 10SM BKN080 BKN100 19/17 A2995 RMK AO2
KOLZ 191115Z AUTO 14007KT 10SM OVC080 19/17 A2995 RMK AO2
KOLZ 191055Z AUTO 13007KT 10SM OVC075 19/18 A2995 RMK AO2
KOLZ 191035Z AUTO 14007KT 10SM OVC075 19/18 A2996 RMK AO2
KOLZ 191015Z AUTO 15008KT 10SM OVC075 19/18 A2997 RMK AO2
KOLZ 190955Z AUTO 14007KT 10SM BKN075 OVC090 18/18 A2996 RMK AO2
KOLZ 190935Z AUTO 14006KT 10SM FEW075 SCT090 BKN130 18/18 A2996 RMK AO2
KOLZ 190915Z AUTO 15006KT 10SM BKN130 18/18 A2996 RMK AO2
KOLZ 190855Z AUTO 14006KT 10SM BKN130 18/18 A2996 RMK AO2
KOLZ 190835Z AUTO 13006KT 10SM BKN130 BKN150 19/18 A2997 RMK AO2
KOLZ 190815Z AUTO 14005KT 10SM SCT060 SCT130 BKN150 19/18 A2997 RMK AO2
KOLZ 190755Z AUTO 15006KT 10SM SCT060 BKN150 19/18 A2998 RMK AO2
KOLZ 190735Z AUTO 14005KT 10SM CLR 19/18 A2998 RMK AO2
KOLZ 190715Z AUTO 15006KT 10SM CLR 19/18 A2998 RMK AO2
KOLZ 190655Z AUTO 14007KT 10SM CLR 19/18 A2998 RMK AO2
KOLZ 190635Z AUTO 14007KT 10SM CLR 19/19 A2999 RMK AO2
KOLZ 190615Z AUTO 15005KT 10SM SCT180 19/19 A2999 RMK AO2
KOLZ 190555Z AUTO 14006KT 10SM BKN180 20/19 A3000 RMK AO2
KOLZ 190535Z AUTO 14006KT 10SM BKN180 20/19 A3000 RMK AO2
KOLZ 190515Z AUTO 14007KT 10SM CLR 20/19 A3000 RMK AO2
KOLZ 190455Z AUTO 14006KT 10SM CLR 20/19 A3001 RMK AO2
KOLZ 190435Z AUTO 15007KT 10SM CLR 21/20 A3001 RMK AO2
KOLZ 190415Z AUTO 14006KT 10SM FEW190 21/20 A3001 RMK AO2
KOLZ 190355Z AUTO 14006KT 10SM FEW230 21/20 A3001 RMK AO2
KOLZ 190335Z AUTO 13006KT 10SM CLR 21/20 A3001 RMK AO2
KOLZ 190315Z AUTO 13006KT 10SM CLR 22/20 A3001 RMK AO2
KOLZ 190255Z AUTO 13005KT 22/20 A3001 RMK AO2
KOLZ 190235Z AUTO 13005KT 10SM FEW055 BKN075 OVC085 22/21 A3001 RMK AO2
KOLZ 190215Z AUTO 14005KT 10SM FEW055 OVC070 22/21 A3001 RMK AO2
KOLZ 190155Z AUTO 13005KT 10SM BKN075 OVC085 22/21 A3000 RMK AO2
KOLZ 190135Z AUTO 14004KT 10SM SCT070 BKN080 23/21 A3000 RMK AO2
KOLZ 190115Z AUTO 12004KT 10SM BKN080 23/21 A3000 RMK AO2
KOLZ 190055Z AUTO 12004KT 10SM BKN070 OVC080 24/21 A3000 RMK AO2
KOLZ 190035Z AUTO 14004KT 10SM FEW070 SCT085 24/21 A3000 RMK AO2
KOLZ 190015Z AUTO 14004KT 10SM SCT085 25/21 A3000 RMK AO2
KOLZ 182355Z AUTO 13004KT 10SM FEW080 25/21 A3000 RMK AO2
KOLZ 182335Z AUTO 14006KT 10SM FEW080 26/20 A3001 RMK AO2
KOLZ 182315Z AUTO 13006KT 10SM CLR 26/20 A3001 RMK AO2
KOLZ 182255Z AUTO 14004KT 10SM CLR 26/21 A3002 RMK AO2
KOLZ 182235Z AUTO 13006KT 10SM SCT075 26/20 A3002 RMK AO2
KOLZ 182215Z AUTO 14005KT 10SM SCT075 26/20 A3003 RMK AO2
KOLZ 182155Z AUTO 14008KT 10SM FEW036 FEW049 26/20 A3003 RMK AO2
KOLZ 182135Z AUTO 14006KT 10SM FEW034 SCT040 SCT049 26/19 A3004 RMK AO2
KOLZ 182115Z AUTO 15005KT 10SM CLR 26/20 A3004 RMK AO2
KOLZ 182055Z AUTO 16004KT 10SM CLR 26/20 A3004 RMK AO2
KOLZ 182035Z AUTO VRB04KT 10SM CLR 26/19 A3005 RMK AO2
KOLZ 182015Z AUTO VRB04KT 10SM CLR 27/20 A3006 RMK AO2
KOLZ 181955Z AUTO 00000KT 10SM CLR 27/19 A3006 RMK AO2
KOLZ 181935Z AUTO 12003KT 10SM FEW070 26/20 A3007 RMK AO2
KOLZ 181915Z AUTO 00000KT 10SM FEW065 26/19 A3008 RMK AO2
KOLZ 181855Z AUTO 00000KT 10SM FEW046 SCT055 BKN065 26/19 A3008 RMK AO2
KOLZ 181835Z AUTO 00000KT 10SM FEW035 FEW046 BKN055 26/19 A3008 RMK AO2
KOLZ 181815Z AUTO 00000KT 10SM FEW034 26/19 A3008 RMK AO2
KOLZ 181755Z AUTO 16006KT 10SM CLR 26/19 A3009 RMK AO2
KOLZ 181735Z AUTO 00000KT 10SM FEW030 FEW036 SCT050 26/19 A3009 RMK AO2
KOLZ 181715Z AUTO 00000KT 10SM CLR 25/19 A3010 RMK AO2
KOLZ 181655Z AUTO VRB03KT 10SM CLR 25/19 A3010 RMK AO2
KOLZ 181635Z AUTO VRB04KT 10SM FEW023 25/20 A3010 RMK AO2
KOLZ 181615Z AUTO 19005KT 10SM SCT023 25/20 A3011 RMK AO2
KOLZ 181555Z AUTO VRB04KT 10SM CLR 25/20 A3011 RMK AO2
KOLZ 181535Z AUTO 00000KT 10SM CLR 24/19 A3012 RMK AO2
KOLZ 181515Z AUTO 16004KT 10SM CLR 24/20 A3012 RMK AO2